Time;durP1;ratioP1;P1;durP2;ratioP2;P2;SDS_P1;SDS_P2;PMS_P1;PMS_P2;Temp;Humidity;BMP_temperature;BMP_pressure;BME280_temperature;BME280_humidity;BME280_pressure;Samples;Min_cycle;Max_cycle;Signal;HPM_P1;HPM_P2
2022/10/25 00:01:25;;;;;;;3.63;0.95;;;14.70;99.90;;;;;;5051581;28;20445;-76
2022/10/25 00:03:54;;;;;;;5.33;1.43;;;14.60;99.90;;;;;;5033618;28;20028;-76
2022/10/25 00:06:20;;;;;;;4.35;1.33;;;14.60;99.90;;;;;;5033397;28;20456;-75
2022/10/25 00:08:49;;;;;;;6.53;1.27;;;14.60;99.90;;;;;;5032835;28;20021;-76
2022/10/25 00:11:26;;;;;;;3.55;1.25;;;14.60;99.90;;;;;;5041600;28;20029;-76
2022/10/25 00:13:53;;;;;;;4.18;1.70;;;14.60;99.90;;;;;;5051009;28;20021;-76
2022/10/25 00:16:28;;;;;;;5.70;1.80;;;14.50;99.90;;;;;;5033023;28;20525;-76
2022/10/25 00:18:53;;;;;;;4.22;1.50;;;14.50;99.90;;;;;;5033308;28;20458;-76
2022/10/25 00:21:19;;;;;;;4.88;1.85;;;14.40;99.90;;;;;;5032859;28;20028;-76
2022/10/25 00:23:45;;;;;;;5.32;1.55;;;14.40;99.90;;;;;;5051481;28;20501;-76
2022/10/25 00:26:11;;;;;;;6.78;1.80;;;14.40;99.90;;;;;;5032525;28;20544;-76
2022/10/25 00:28:37;;;;;;;5.32;1.98;;;14.40;99.90;;;;;;5033138;28;20025;-77
2022/10/25 00:31:05;;;;;;;6.38;1.67;;;14.40;99.90;;;;;;5032763;28;20382;-76
2022/10/25 00:33:32;;;;;;;4.97;1.90;;;14.40;99.90;;;;;;5032575;28;20025;-76
2022/10/25 00:36:13;;;;;;;7.43;1.65;;;14.30;99.90;;;;;;5032588;28;20017;-76
2022/10/25 00:38:39;;;;;;;5.88;2.25;;;14.30;99.90;;;;;;5050119;28;20028;-76
2022/10/25 00:41:05;;;;;;;6.38;2.13;;;14.30;99.90;;;;;;5019671;28;20025;-76
2022/10/25 00:43:43;;;;;;;9.27;2.47;;;14.30;99.90;;;;;;5050223;28;20059;-76
2022/10/25 00:46:13;;;;;;;7.63;2.50;;;14.30;99.90;;;;;;5033104;28;20115;-76
2022/10/25 00:48:40;;;;;;;6.43;1.85;;;14.30;99.90;;;;;;5032798;28;20071;-77
2022/10/25 00:51:07;;;;;;;12.70;2.13;;;14.30;99.90;;;;;;5050252;28;20151;-77
2022/10/25 00:53:35;;;;;;;7.30;2.08;;;14.20;99.90;;;;;;5032035;28;20040;-77
2022/10/25 00:56:12;;;;;;;5.15;1.70;;;14.20;99.90;;;;;;5050362;28;20025;-77
2022/10/25 00:58:40;;;;;;;11.25;2.60;;;14.30;99.90;;;;;;5031454;28;20542;-77
2022/10/25 01:01:07;;;;;;;6.13;2.03;;;14.30;99.90;;;;;;5050097;28;20025;-77
2022/10/25 01:03:35;;;;;;;3.08;1.75;;;14.30;99.90;;;;;;5032151;28;20449;-77
2022/10/25 01:06:04;;;;;;;8.18;2.22;;;14.30;99.90;;;;;;5031286;28;20108;-77
2022/10/25 01:08:29;;;;;;;10.05;2.15;;;14.30;99.90;;;;;;5032527;28;20036;-77
2022/10/25 01:10:55;;;;;;;7.55;1.88;;;14.30;99.90;;;;;;5019230;28;20029;-77
2022/10/25 01:13:20;;;;;;;8.55;1.92;;;14.30;99.90;;;;;;5031593;28;20493;-77
2022/10/25 01:16:04;;;;;;;3.60;1.27;;;14.30;99.90;;;;;;5032169;28;20029;-77
2022/10/25 01:18:47;;;;;;;7.88;1.70;;;14.30;99.90;;;;;;5032507;28;20029;-77
2022/10/25 01:21:34;;;;;;;5.88;1.70;;;14.30;99.90;;;;;;5052236;28;20482;-78
2022/10/25 01:24:05;;;;;;;11.60;1.65;;;14.30;99.90;;;;;;5034112;28;20029;-76
2022/10/25 01:27:08;;;;;;;3.78;1.55;;;14.30;99.90;;;;;;5051634;28;20043;-77
2022/10/25 01:30:05;;;;;;;5.75;1.55;;;14.30;99.90;;;;;;5033432;28;20025;-77
2022/10/25 01:32:39;;;;;;;3.42;1.50;;;14.30;99.90;;;;;;5052518;28;20036;-79
2022/10/25 01:35:27;;;;;;;5.90;1.48;;;14.30;99.90;;;;;;5034309;28;20494;-78
2022/10/25 01:38:08;;;;;;;6.72;1.80;;;14.20;99.90;;;;;;5031732;28;20021;-78
2022/10/25 01:40:42;;;;;;;2.08;1.05;;;14.20;99.90;;;;;;5020998;28;20024;-78
2022/10/25 01:43:34;;;;;;;4.35;1.48;;;14.20;99.90;;;;;;5041121;28;20061;-77
2022/10/25 01:46:18;;;;;;;3.55;1.35;;;14.10;99.90;;;;;;5031900;28;20025;-77
2022/10/25 01:48:52;;;;;;;8.70;1.35;;;14.10;99.90;;;;;;5032275;28;20036;-78
2022/10/25 01:51:17;;;;;;;2.47;1.38;;;14.10;99.90;;;;;;5035118;28;20140;-78
2022/10/25 01:53:48;;;;;;;4.30;1.52;;;14.10;99.90;;;;;;5053655;28;20067;-78
2022/10/25 01:56:22;;;;;;;6.15;1.60;;;14.10;99.90;;;;;;5053715;28;20021;-77
2022/10/25 01:59:09;;;;;;;3.88;1.48;;;14.10;99.90;;;;;;5035547;28;20029;-78
2022/10/25 02:01:54;;;;;;;3.25;1.20;;;14.20;99.90;;;;;;5053466;28;20051;-78
2022/10/25 02:04:33;;;;;;;3.72;1.20;;;14.20;99.90;;;;;;5053248;28;20029;-77
2022/10/25 02:07:10;;;;;;;7.18;1.60;;;14.30;99.90;;;;;;5035248;28;20120;-78
2022/10/25 02:09:52;;;;;;;2.38;1.20;;;14.30;99.90;;;;;;5048023;28;20569;-77
2022/10/25 02:12:26;;;;;;;3.90;1.45;;;14.20;99.90;;;;;;5024121;28;20474;-80
2022/10/25 02:15:07;;;;;;;3.40;1.20;;;14.20;99.90;;;;;;5033956;28;20021;-79
2022/10/25 02:17:34;;;;;;;3.22;1.33;;;14.10;99.90;;;;;;5016232;28;20029;-80
2022/10/25 02:20:05;;;;;;;1.88;1.15;;;14.20;99.90;;;;;;5033811;28;20490;-80
2022/10/25 02:22:33;;;;;;;6.57;1.92;;;14.20;99.90;;;;;;5033874;28;20026;-80
2022/10/25 02:24:59;;;;;;;4.07;1.52;;;14.20;99.90;;;;;;5015847;28;20497;-80
2022/10/25 02:27:27;;;;;;;10.20;1.30;;;14.20;99.90;;;;;;5033902;28;20026;-80
2022/10/25 02:29:53;;;;;;;6.93;1.20;;;14.20;99.90;;;;;;5014558;28;20036;-81
2022/10/25 02:32:20;;;;;;;3.65;1.40;;;14.30;99.90;;;;;;5014966;28;20025;-81
2022/10/25 02:34:49;;;;;;;5.50;1.33;;;14.30;99.90;;;;;;5015703;28;20056;-81
2022/10/25 02:37:16;;;;;;;4.43;1.30;;;14.30;99.90;;;;;;5015541;28;20083;-80
2022/10/25 02:39:43;;;;;;;1.95;1.00;;;14.20;99.90;;;;;;5015159;28;20036;-80
2022/10/25 02:42:08;;;;;;;6.93;1.27;;;14.20;99.90;;;;;;5041557;28;20064;-81
2022/10/25 02:44:34;;;;;;;3.50;1.42;;;14.20;99.90;;;;;;5015876;28;20061;-81
2022/10/25 02:46:59;;;;;;;3.97;1.00;;;14.10;99.90;;;;;;5015994;28;20391;-80
2022/10/25 02:49:25;;;;;;;1.85;0.98;;;14.10;99.90;;;;;;5016612;28;20017;-81
2022/10/25 02:51:50;;;;;;;2.38;0.88;;;14.10;99.90;;;;;;5015739;28;20429;-81
2022/10/25 02:54:15;;;;;;;6.57;1.13;;;14.00;99.90;;;;;;5015315;28;20029;-79
2022/10/25 02:56:41;;;;;;;6.72;1.38;;;14.00;99.90;;;;;;5014773;28;20246;-80
2022/10/25 02:59:09;;;;;;;3.92;1.30;;;13.90;99.90;;;;;;5032942;28;20026;-80
2022/10/25 03:01:35;;;;;;;5.57;1.25;;;13.90;99.90;;;;;;5032039;28;20101;-80
2022/10/25 03:04:00;;;;;;;10.45;1.48;;;14.00;99.90;;;;;;5032625;28;20610;-80
2022/10/25 03:06:26;;;;;;;4.88;1.42;;;13.90;99.90;;;;;;5014772;28;20060;-79
2022/10/25 03:08:51;;;;;;;6.47;1.50;;;13.90;99.90;;;;;;5014895;28;20390;-80
2022/10/25 03:11:17;;;;;;;5.20;1.58;;;13.90;99.90;;;;;;5017110;28;20021;-80
2022/10/25 03:13:43;;;;;;;4.93;1.70;;;13.90;99.90;;;;;;5016563;28;20021;-80
2022/10/25 03:16:11;;;;;;;6.28;1.20;;;13.90;99.90;;;;;;4995651;28;20084;-80
2022/10/25 03:18:40;;;;;;;7.75;1.52;;;13.80;99.90;;;;;;5013551;28;20036;-78
2022/10/25 03:21:06;;;;;;;4.88;1.45;;;13.80;99.90;;;;;;5013441;28;20026;-79
2022/10/25 03:23:34;;;;;;;4.50;1.65;;;13.80;99.90;;;;;;4995487;28;20026;-79
2022/10/25 03:26:03;;;;;;;3.47;1.80;;;13.80;99.90;;;;;;4995791;28;20030;-80
2022/10/25 03:28:29;;;;;;;6.72;1.63;;;13.80;99.90;;;;;;4995702;28;20026;-79
2022/10/25 03:30:58;;;;;;;4.28;1.38;;;13.70;99.90;;;;;;5018430;28;20049;-79
2022/10/25 03:33:27;;;;;;;5.05;1.92;;;13.70;99.90;;;;;;5005539;28;20105;-79
2022/10/25 03:35:54;;;;;;;9.15;1.60;;;13.70;99.90;;;;;;5023962;28;20025;-79
2022/10/25 03:38:20;;;;;;;5.47;1.80;;;13.70;99.90;;;;;;4996200;28;20022;-79
2022/10/25 03:40:48;;;;;;;6.82;1.77;;;13.70;99.90;;;;;;5027085;28;20025;-79
2022/10/25 03:43:13;;;;;;;3.38;1.60;;;13.70;99.90;;;;;;5025050;28;20119;-79
2022/10/25 03:45:39;;;;;;;3.53;1.52;;;13.70;99.90;;;;;;5034824;28;20504;-80
2022/10/25 03:48:08;;;;;;;3.85;1.30;;;13.70;99.90;;;;;;5052765;28;20151;-79
2022/10/25 03:50:35;;;;;;;5.53;1.50;;;13.70;99.90;;;;;;5034768;28;20120;-79
2022/10/25 03:53:04;;;;;;;4.40;1.40;;;13.70;99.90;;;;;;5034752;28;20112;-79
2022/10/25 03:55:33;;;;;;;4.28;1.70;;;13.70;99.90;;;;;;5034573;28;20381;-79
2022/10/25 03:58:02;;;;;;;7.32;2.03;;;13.70;99.90;;;;;;5034295;28;20032;-79
2022/10/25 04:00:31;;;;;;;2.88;1.50;;;13.70;99.90;;;;;;5027482;28;20387;-79
2022/10/25 04:03:00;;;;;;;3.88;1.60;;;13.70;99.90;;;;;;5004589;28;20109;-80
2022/10/25 04:05:26;;;;;;;7.35;2.00;;;13.80;99.90;;;;;;5001049;28;20394;-79
2022/10/25 04:07:54;;;;;;;10.45;2.08;;;13.70;99.90;;;;;;5016016;28;20029;-79
2022/10/25 04:10:23;;;;;;;5.57;1.73;;;13.70;99.90;;;;;;4996975;28;20101;-79
2022/10/25 04:12:48;;;;;;;7.13;1.83;;;13.70;99.90;;;;;;5014123;28;20497;-79
2022/10/25 04:15:15;;;;;;;9.18;1.90;;;13.80;99.90;;;;;;4995318;28;20038;-79
2022/10/25 04:17:47;;;;;;;6.80;1.80;;;13.70;99.90;;;;;;4993998;28;20033;-79
2022/10/25 04:20:12;;;;;;;9.00;1.85;;;13.80;99.90;;;;;;5012212;28;20022;-80
2022/10/25 04:22:40;;;;;;;8.50;2.17;;;13.80;99.90;;;;;;5011872;28;20036;-79
2022/10/25 04:25:09;;;;;;;5.40;1.63;;;13.70;99.90;;;;;;5012923;28;20026;-79
2022/10/25 04:27:37;;;;;;;9.35;2.08;;;13.70;99.90;;;;;;5012675;28;20428;-79
2022/10/25 04:30:05;;;;;;;11.90;2.60;;;13.60;99.90;;;;;;4995084;28;20411;-79
2022/10/25 04:32:31;;;;;;;6.30;2.50;;;13.50;99.90;;;;;;4996710;28;20030;-81
2022/10/25 04:34:59;;;;;;;7.97;2.67;;;13.50;99.90;;;;;;4995737;28;20022;-79
2022/10/25 04:37:28;;;;;;;10.15;3.08;;;13.50;99.90;;;;;;4994832;28;20117;-80
2022/10/25 04:39:57;;;;;;;7.90;2.72;;;13.50;99.90;;;;;;4996545;28;20479;-80
2022/10/25 04:42:22;;;;;;;11.05;2.88;;;13.40;99.90;;;;;;5035838;28;20033;-80
2022/10/25 04:44:51;;;;;;;6.53;3.17;;;13.40;99.90;;;;;;5034105;28;20021;-78
2022/10/25 04:47:20;;;;;;;8.95;2.33;;;13.40;99.90;;;;;;5033968;28;20041;-79
2022/10/25 04:49:46;;;;;;;8.35;2.65;;;13.40;99.90;;;;;;5052118;28;20031;-79
2022/10/25 04:52:15;;;;;;;8.30;2.70;;;13.50;99.90;;;;;;5032605;28;20020;-78
2022/10/25 04:54:41;;;;;;;5.55;2.75;;;13.50;99.90;;;;;;5051729;28;20024;-79
2022/10/25 04:57:10;;;;;;;9.00;3.08;;;13.50;99.90;;;;;;5054343;28;20048;-79
2022/10/25 04:59:39;;;;;;;10.40;2.97;;;13.50;99.90;;;;;;5034097;28;20025;-81
2022/10/25 05:02:04;;;;;;;10.98;2.50;;;13.60;99.90;;;;;;5023062;28;20030;-81
2022/10/25 05:04:33;;;;;;;10.32;2.97;;;13.60;99.90;;;;;;5015063;28;20532;-79
2022/10/25 05:06:58;;;;;;;11.95;3.90;;;13.60;99.90;;;;;;5010510;28;20056;-78
2022/10/25 05:09:24;;;;;;;11.05;2.72;;;13.60;99.90;;;;;;4996691;28;20605;-79
2022/10/25 05:11:50;;;;;;;11.73;3.63;;;13.50;99.90;;;;;;5006641;28;20181;-78
2022/10/25 05:14:16;;;;;;;8.75;3.00;;;13.50;99.90;;;;;;5013701;28;20014;-78
2022/10/25 05:16:44;;;;;;;8.15;2.97;;;13.50;99.90;;;;;;5021864;28;20109;-78
2022/10/25 05:19:10;;;;;;;9.90;2.90;;;13.50;99.90;;;;;;5020282;28;20028;-78
2022/10/25 05:21:36;;;;;;;13.85;3.25;;;13.50;99.90;;;;;;5012381;28;20037;-78
2022/10/25 05:24:05;;;;;;;11.05;3.15;;;13.50;99.90;;;;;;5007490;28;20314;-78
2022/10/25 05:26:33;;;;;;;8.25;2.72;;;13.50;99.90;;;;;;5007739;28;20072;-79
2022/10/25 05:28:59;;;;;;;6.20;3.10;;;13.50;99.90;;;;;;4993733;28;20095;-77
2022/10/25 05:31:27;;;;;;;11.95;2.85;;;13.50;99.90;;;;;;4994190;28;20546;-78
2022/10/25 05:33:56;;;;;;;7.13;2.55;;;13.50;99.90;;;;;;5024900;28;20060;-79
2022/10/25 05:36:22;;;;;;;12.00;2.97;;;13.50;99.90;;;;;;5028684;28;20037;-79
2022/10/25 05:38:48;;;;;;;12.48;3.10;;;13.50;99.90;;;;;;5018319;28;20018;-78
2022/10/25 05:41:16;;;;;;;8.65;2.67;;;13.50;99.90;;;;;;5009770;28;20141;-80
2022/10/25 05:43:42;;;;;;;7.47;2.22;;;13.50;99.90;;;;;;5006112;28;20026;-79
2022/10/25 05:46:11;;;;;;;8.45;3.10;;;13.50;99.90;;;;;;5014537;28;20493;-78
2022/10/25 05:48:37;;;;;;;9.52;3.22;;;13.50;99.90;;;;;;5013567;28;20026;-79
2022/10/25 05:51:27;;;;;;;8.55;3.20;;;13.50;99.90;;;;;;5016148;28;20049;-78
2022/10/25 05:53:55;;;;;;;16.45;3.83;;;13.50;99.90;;;;;;5003493;28;20022;-79
2022/10/25 05:56:22;;;;;;;12.98;3.28;;;13.60;99.90;;;;;;5016387;28;20643;-81
2022/10/25 05:58:49;;;;;;;8.52;2.92;;;13.60;99.90;;;;;;5052026;28;20025;-81
2022/10/25 06:01:17;;;;;;;7.55;2.85;;;13.60;99.90;;;;;;5034471;28;20043;-79
2022/10/25 06:03:43;;;;;;;14.15;3.58;;;13.60;99.90;;;;;;5012868;28;20113;-79
2022/10/25 06:06:10;;;;;;;12.23;3.30;;;13.60;99.90;;;;;;5028398;28;20140;-76
2022/10/25 06:08:37;;;;;;;11.77;3.13;;;13.60;99.90;;;;;;5003710;28;20026;-76
2022/10/25 06:11:08;;;;;;;14.10;3.22;;;13.60;99.90;;;;;;5007679;28;20044;-76
2022/10/25 06:13:36;;;;;;;14.57;4.30;;;13.60;99.90;;;;;;5010961;28;20034;-76
2022/10/25 06:16:03;;;;;;;5.13;3.03;;;13.60;99.90;;;;;;5012158;28;20025;-76
2022/10/25 06:18:29;;;;;;;6.97;3.10;;;13.60;99.90;;;;;;5029571;28;20018;-76
2022/10/25 06:20:59;;;;;;;11.40;3.47;;;13.60;99.90;;;;;;5020428;28;20083;-76
2022/10/25 06:23:25;;;;;;;16.38;3.72;;;13.60;99.90;;;;;;4993278;28;20166;-75
2022/10/25 06:25:51;;;;;;;9.10;3.72;;;13.60;99.90;;;;;;4992746;28;20018;-75
2022/10/25 06:28:17;;;;;;;10.13;3.42;;;13.60;99.90;;;;;;5020804;28;20030;-75
2022/10/25 06:30:42;;;;;;;5.63;3.30;;;13.60;99.90;;;;;;5017252;28;20029;-75
2022/10/25 06:33:08;;;;;;;11.75;3.00;;;13.60;99.90;;;;;;5031622;28;20161;-75
2022/10/25 06:35:34;;;;;;;13.65;3.85;;;13.70;99.90;;;;;;5023566;28;20514;-77
2022/10/25 06:38:00;;;;;;;10.10;3.35;;;13.70;99.90;;;;;;5012816;28;20026;-75
2022/10/25 06:40:26;;;;;;;15.77;3.72;;;13.70;99.90;;;;;;5009317;28;20052;-76
2022/10/25 06:42:55;;;;;;;10.35;3.42;;;13.60;99.90;;;;;;5016217;28;20134;-80
2022/10/25 06:45:22;;;;;;;10.57;4.20;;;13.70;99.90;;;;;;5006523;28;20127;-80
2022/10/25 06:47:48;;;;;;;11.82;4.22;;;13.70;99.90;;;;;;5045694;28;20021;-80
2022/10/25 06:50:13;;;;;;;9.40;3.58;;;13.70;99.90;;;;;;5036479;28;20023;-80
2022/10/25 06:52:39;;;;;;;13.07;3.90;;;13.70;99.90;;;;;;5036770;28;20112;-79
2022/10/25 06:55:05;;;;;;;12.15;4.07;;;13.80;99.90;;;;;;5031280;28;20029;-78
2022/10/25 06:57:30;;;;;;;8.90;3.70;;;13.80;99.90;;;;;;5029468;28;20036;-78
2022/10/25 06:59:56;;;;;;;9.82;3.38;;;13.80;99.90;;;;;;5054316;28;20025;-79
2022/10/25 07:02:22;;;;;;;9.15;3.10;;;13.80;99.90;;;;;;5026448;28;20040;-79
2022/10/25 07:04:47;;;;;;;7.22;2.80;;;13.90;99.90;;;;;;5023548;28;20066;-76
2022/10/25 07:07:13;;;;;;;8.82;3.45;;;13.90;99.90;;;;;;5034041;28;20030;-76
2022/10/25 07:09:39;;;;;;;13.43;3.63;;;13.80;99.90;;;;;;5015290;28;20029;-76
2022/10/25 07:12:09;;;;;;;8.35;3.33;;;13.80;99.90;;;;;;5030924;28;20033;-77
2022/10/25 07:14:34;;;;;;;10.90;3.05;;;13.80;99.90;;;;;;5023029;28;20105;-76
2022/10/25 07:17:00;;;;;;;18.70;4.35;;;13.90;99.90;;;;;;5049383;28;20125;-76
2022/10/25 07:19:25;;;;;;;12.65;3.25;;;14.00;99.90;;;;;;5030651;28;20021;-76
2022/10/25 07:21:51;;;;;;;9.90;3.58;;;14.00;99.90;;;;;;5043460;28;20120;-76
2022/10/25 07:24:17;;;;;;;15.68;3.55;;;14.00;99.90;;;;;;5029813;28;20421;-76
2022/10/25 07:26:43;;;;;;;14.18;3.88;;;14.00;99.90;;;;;;5019039;28;20025;-76
2022/10/25 07:29:09;;;;;;;11.98;3.70;;;14.10;99.90;;;;;;5025522;28;20025;-77
2022/10/25 07:31:38;;;;;;;12.43;3.47;;;14.10;99.90;;;;;;5016988;28;20037;-76
2022/10/25 07:34:05;;;;;;;12.65;3.55;;;14.20;99.90;;;;;;5012987;28;20025;-76
2022/10/25 07:36:30;;;;;;;10.77;3.50;;;14.30;99.90;;;;;;5023559;28;20510;-76
2022/10/25 07:38:56;;;;;;;10.10;3.03;;;14.40;99.90;;;;;;5017257;28;20037;-77
2022/10/25 07:41:23;;;;;;;8.63;3.05;;;14.30;99.90;;;;;;5038420;28;20044;-76
2022/10/25 07:43:48;;;;;;;16.05;4.07;;;14.30;99.90;;;;;;5010495;28;20053;-76
2022/10/25 07:46:15;;;;;;;8.07;3.13;;;14.30;99.90;;;;;;5020918;28;20052;-76
2022/10/25 07:48:41;;;;;;;13.27;3.55;;;14.20;99.90;;;;;;5021866;28;20465;-76
2022/10/25 07:51:11;;;;;;;10.40;3.35;;;14.20;99.90;;;;;;5027272;28;20342;-76
2022/10/25 07:53:40;;;;;;;9.80;3.22;;;14.20;99.90;;;;;;5014834;28;20014;-77
2022/10/25 07:56:13;;;;;;;17.38;4.10;;;14.20;99.90;;;;;;5036852;28;20037;-77
2022/10/25 07:58:39;;;;;;;9.48;3.30;;;14.20;99.90;;;;;;5042776;28;20029;-76
2022/10/25 08:01:09;;;;;;;9.48;3.67;;;14.20;99.90;;;;;;5034263;28;20397;-76
2022/10/25 08:03:35;;;;;;;16.10;3.42;;;14.10;99.90;;;;;;5019950;28;20087;-76
2022/10/25 08:06:01;;;;;;;8.13;3.35;;;14.20;99.90;;;;;;5037122;28;20120;-77
2022/10/25 08:08:30;;;;;;;15.95;3.45;;;14.10;99.90;;;;;;5017144;28;20029;-76
2022/10/25 08:10:58;;;;;;;15.90;3.80;;;14.10;99.90;;;;;;5041761;28;20025;-76
2022/10/25 08:13:30;;;;;;;10.55;3.30;;;14.10;99.90;;;;;;5009759;28;20030;-76
2022/10/25 08:15:55;;;;;;;13.75;3.60;;;14.20;99.90;;;;;;5012253;28;20033;-76
2022/10/25 08:18:22;;;;;;;9.02;3.30;;;14.10;99.90;;;;;;5020515;28;20017;-76
2022/10/25 08:20:47;;;;;;;14.02;4.00;;;14.20;99.90;;;;;;5021243;28;20048;-76
2022/10/25 08:23:16;;;;;;;9.57;2.95;;;14.30;99.90;;;;;;5034529;28;20030;-76
2022/10/25 08:25:44;;;;;;;10.23;3.50;;;14.30;99.90;;;;;;5016613;28;20033;-76
2022/10/25 08:28:10;;;;;;;11.65;3.15;;;14.40;99.90;;;;;;5021613;28;20026;-76
2022/10/25 08:30:36;;;;;;;13.88;3.63;;;14.40;99.90;;;;;;5050739;28;20389;-76
2022/10/25 08:33:02;;;;;;;9.80;3.08;;;14.50;99.90;;;;;;5036243;28;20021;-76
2022/10/25 08:35:28;;;;;;;9.40;3.10;;;14.50;99.90;;;;;;5013880;28;20108;-80
2022/10/25 08:37:53;;;;;;;15.82;3.75;;;14.70;99.90;;;;;;5013468;28;20025;-76
2022/10/25 08:40:49;;;;;;;10.13;3.40;;;14.60;99.90;;;;;;5007549;28;20066;-76
2022/10/25 08:43:20;;;;;;;11.18;3.75;;;14.70;99.90;;;;;;5018749;28;20057;-76
2022/10/25 08:46:03;;;;;;;9.70;3.50;;;14.80;99.90;;;;;;4993556;28;20044;-76
2022/10/25 08:48:40;;;;;;;9.73;3.20;;;14.90;99.90;;;;;;5034801;28;20551;-77
2022/10/25 08:51:32;;;;;;;8.75;3.22;;;15.00;99.90;;;;;;5020047;28;20029;-76
2022/10/25 08:54:13;;;;;;;8.30;3.17;;;15.00;99.90;;;;;;5013176;28;20277;-76
2022/10/25 08:56:38;;;;;;;10.18;3.15;;;15.20;99.90;;;;;;5013009;28;20021;-76
2022/10/25 08:59:04;;;;;;;12.35;3.55;;;15.40;99.90;;;;;;5031387;28;20041;-76
2022/10/25 09:01:52;;;;;;;12.10;3.40;;;15.60;99.90;;;;;;5016042;28;20017;-77
2022/10/25 09:04:18;;;;;;;11.75;3.03;;;15.70;99.90;;;;;;5016882;28;20024;-77
2022/10/25 09:07:06;;;;;;;9.32;2.85;;;15.90;99.90;;;;;;5024108;28;20054;-77
2022/10/25 09:09:39;;;;;;;8.07;2.85;;;16.20;99.90;;;;;;5032594;28;20025;-76
2022/10/25 09:12:37;;;;;;;15.70;3.15;;;16.70;99.90;;;;;;5016306;28;20026;-77
2022/10/25 09:15:37;;;;;;;8.23;2.28;;;17.90;99.90;;;;;;5016595;28;20029;-77
2022/10/25 09:18:14;;;;;;;9.00;2.53;;;19.30;99.90;;;;;;5032456;28;20021;-76
2022/10/25 09:20:49;;;;;;;6.78;2.40;;;21.00;99.90;;;;;;5050410;28;20029;-76
2022/10/25 09:23:20;;;;;;;6.82;2.10;;;22.20;99.90;;;;;;5025444;28;20030;-76
2022/10/25 09:26:01;;;;;;;;;;;23.20;98.60;;;;;;5039284;28;20025;-77
2022/10/25 09:28:45;;;;;;;9.20;2.67;;;23.30;97.10;;;;;;5033356;28;19905;-76
2022/10/25 09:31:18;;;;;;;6.68;2.03;;;24.50;94.70;;;;;;5030455;28;20103;-77
2022/10/25 09:33:47;;;;;;;9.30;2.22;;;24.50;94.10;;;;;;5040941;28;20033;-77
2022/10/25 09:36:14;;;;;;;6.20;2.22;;;24.70;93.00;;;;;;5032515;28;20029;-77
2022/10/25 09:38:53;;;;;;;7.65;2.10;;;25.40;92.00;;;;;;5035296;28;20052;-77
2022/10/25 09:41:24;;;;;;;6.68;1.77;;;24.70;90.70;;;;;;5036362;28;20029;-77
2022/10/25 09:44:30;;;;;;;6.88;2.08;;;24.50;91.90;;;;;;5018691;28;20489;-77
2022/10/25 09:47:10;;;;;;;7.50;2.15;;;25.10;90.80;;;;;;4929505;29;20102;-77
2022/10/25 09:49:47;;;;;;;7.30;2.47;;;25.60;89.40;;;;;;5032377;28;20469;-76
2022/10/25 09:52:55;;;;;;;6.03;2.10;;;25.30;88.60;;;;;;5014905;28;20026;-76
2022/10/25 09:55:33;;;;;;;7.22;2.08;;;24.60;90.20;;;;;;4999995;28;20034;-77
2022/10/25 09:58:00;;;;;;;8.05;2.22;;;23.60;91.50;;;;;;5013276;28;20026;-77
2022/10/25 10:00:26;;;;;;;9.80;2.30;;;23.00;92.40;;;;;;5013190;28;20644;-77
2022/10/25 10:02:51;;;;;;;6.45;2.33;;;22.90;92.90;;;;;;5002534;28;20044;-77
2022/10/25 10:05:19;;;;;;;9.05;2.58;;;21.60;93.90;;;;;;5032966;28;20021;-76
2022/10/25 10:07:46;;;;;;;7.53;2.70;;;21.00;95.80;;;;;;5023337;28;20029;-76
2022/10/25 10:10:33;;;;;;;6.72;2.60;;;20.20;97.40;;;;;;5017476;28;20040;-76
2022/10/25 10:13:05;;;;;;;6.90;2.95;;;19.30;99.00;;;;;;5047962;28;20037;-77
2022/10/25 10:15:33;;;;;;;6.55;2.60;;;20.10;99.10;;;;;;5038118;28;20033;-76
2022/10/25 10:18:32;;;;;;;4.57;2.30;;;20.50;98.40;;;;;;5052479;28;20036;-77
2022/10/25 10:21:05;;;;;;;11.90;2.88;;;21.20;97.80;;;;;;5005444;28;20069;-77
2022/10/25 10:23:45;;;;;;;4.28;2.25;;;22.00;95.40;;;;;;4999640;28;20068;-81
2022/10/25 10:26:26;;;;;;;7.60;2.90;;;22.10;94.20;;;;;;5000933;28;20061;-81
2022/10/25 10:29:07;;;;;;;5.88;2.67;;;22.70;93.40;;;;;;5019621;28;20037;-81
2022/10/25 10:31:41;;;;;;;6.38;2.88;;;23.10;93.00;;;;;;5033632;28;20055;-80
2022/10/25 10:34:50;;;;;;;13.10;2.78;;;23.40;92.30;;;;;;5040383;28;20025;-80
2022/10/25 10:37:32;;;;;;;9.98;2.53;;;23.80;92.30;;;;;;5030608;28;20079;-81
2022/10/25 10:40:07;;;;;;;5.50;2.05;;;24.50;90.20;;;;;;5031308;28;20042;-80
2022/10/25 10:42:35;;;;;;;6.35;2.47;;;24.70;90.00;;;;;;5048019;28;20032;-80
2022/10/25 10:45:07;;;;;;;5.68;2.30;;;24.90;89.20;;;;;;5038785;28;20021;-80
2022/10/25 10:47:50;;;;;;;4.53;2.25;;;25.10;88.10;;;;;;5056400;28;20032;-80
2022/10/25 10:50:22;;;;;;;13.65;7.90;;;25.70;86.70;;;;;;5016798;28;20026;-80
2022/10/25 10:53:08;;;;;;;8.93;2.58;;;25.60;87.50;;;;;;5020132;28;20071;-80
2022/10/25 10:55:43;;;;;;;6.43;2.20;;;25.00;86.70;;;;;;5030802;28;20036;-81
2022/10/25 10:58:36;;;;;;;8.45;3.08;;;24.80;87.50;;;;;;5049601;28;20019;-78
2022/10/25 11:01:05;;;;;;;11.00;3.17;;;24.20;89.50;;;;;;4999357;28;20044;-78
2022/10/25 11:03:40;;;;;;;6.18;2.00;;;23.70;89.90;;;;;;5020482;28;20109;-78
2022/10/25 11:06:07;;;;;;;7.68;2.95;;;23.40;90.30;;;;;;5013562;28;20033;-78
2022/10/25 11:08:35;;;;;;;9.88;3.45;;;22.30;91.50;;;;;;5023910;28;20030;-78
2022/10/25 11:11:23;;;;;;;8.68;3.13;;;21.40;93.00;;;;;;5014202;28;20116;-79
2022/10/25 11:13:57;;;;;;;7.90;3.08;;;20.90;93.10;;;;;;5007773;28;20475;-79
2022/10/25 11:16:58;;;;;;;7.18;2.53;;;20.20;94.80;;;;;;5003396;28;20026;-79
2022/10/25 11:19:45;;;;;;;7.35;2.78;;;20.10;95.00;;;;;;5004457;28;20032;-78
2022/10/25 11:22:55;;;;;;;9.00;2.65;;;20.70;94.50;;;;;;5002168;28;20044;-79
2022/10/25 11:25:43;;;;;;;13.63;2.58;;;22.30;93.00;;;;;;4994245;28;20478;-80
2022/10/25 11:28:37;;;;;;;5.20;2.60;;;23.50;90.50;;;;;;5027476;28;20246;-79
2022/10/25 11:31:20;;;;;;;9.63;3.10;;;23.30;90.60;;;;;;4996606;28;20358;-79
2022/10/25 11:34:22;;;;;;;6.22;2.67;;;22.00;92.30;;;;;;5014087;28;20026;-78
2022/10/25 11:37:39;;;;;;;9.10;2.75;;;21.10;94.00;;;;;;5017367;28;20453;-80
2022/10/25 11:40:19;;;;;;;9.98;3.60;;;20.30;95.10;;;;;;5015435;28;20096;-77
2022/10/25 11:42:53;;;;;;;6.95;2.72;;;19.40;96.40;;;;;;5047218;28;20636;-77
2022/10/25 11:45:42;;;;;;;8.48;2.58;;;19.00;97.10;;;;;;5010457;28;20029;-77
2022/10/25 11:48:28;;;;;;;7.32;2.47;;;18.40;98.50;;;;;;5015404;28;20037;-76
2022/10/25 11:51:22;;;;;;;5.78;2.58;;;18.20;99.50;;;;;;4995541;28;20018;-77
2022/10/25 11:54:17;;;;;;;6.32;3.00;;;17.80;99.90;;;;;;5011565;28;20026;-76
2022/10/25 11:57:07;;;;;;;9.88;3.35;;;17.50;99.90;;;;;;4993618;28;20037;-76
2022/10/25 12:00:17;;;;;;;10.30;3.60;;;17.20;99.90;;;;;;4994037;28;20440;-77
2022/10/25 12:06:11;;;;;;;11.25;4.38;;;16.70;99.90;;;;;;5008505;28;20036;-76
2022/10/25 12:08:48;;;;;;;9.23;4.78;;;16.60;99.90;;;;;;5028666;28;20025;-77
2022/10/25 12:11:19;;;;;;;7.10;3.67;;;16.40;99.90;;;;;;5015994;28;20556;-76
2022/10/25 12:14:11;;;;;;;11.57;4.35;;;16.50;99.90;;;;;;5042070;28;20033;-77
2022/10/25 12:16:40;;;;;;;7.30;4.07;;;16.50;99.90;;;;;;5022319;28;20040;-77
2022/10/25 12:19:35;;;;;;;9.18;4.18;;;16.70;99.90;;;;;;5032794;28;20039;-77
2022/10/25 12:22:23;;;;;;;9.68;3.65;;;17.80;99.90;;;;;;4960986;28;20043;-76
2022/10/25 12:24:59;;;;;;;8.48;2.92;;;18.30;99.90;;;;;;5027192;28;20203;-77
2022/10/25 12:27:32;;;;;;;9.70;3.67;;;18.30;99.90;;;;;;5033488;28;20025;-76
2022/10/25 12:30:13;;;;;;;9.23;3.25;;;18.00;99.90;;;;;;5015788;28;20025;-77
2022/10/25 12:32:50;;;;;;;8.60;3.40;;;18.60;99.90;;;;;;5032702;28;20038;-77
2022/10/25 12:35:35;;;;;;;9.75;3.38;;;19.10;99.90;;;;;;5015760;28;20049;-77
2022/10/25 12:38:25;;;;;;;9.95;2.72;;;19.10;99.90;;;;;;5016297;28;20029;-77
2022/10/25 12:41:02;;;;;;;10.02;2.92;;;18.70;99.90;;;;;;5026760;28;20014;-77
2022/10/25 12:43:36;;;;;;;5.07;2.33;;;18.40;99.90;;;;;;5023756;28;20026;-77
2022/10/25 12:46:07;;;;;;;6.93;2.47;;;18.10;99.90;;;;;;5032103;28;20053;-77
2022/10/25 12:48:44;;;;;;;8.18;2.60;;;17.80;99.90;;;;;;5035962;28;20017;-77
2022/10/25 12:51:40;;;;;;;6.28;2.28;;;17.50;99.90;;;;;;5034245;28;20455;-77
2022/10/25 12:54:25;;;;;;;10.32;3.08;;;17.40;99.90;;;;;;5033407;28;20040;-77
2022/10/25 12:56:59;;;;;;;8.93;2.47;;;17.30;99.90;;;;;;5015560;28;20022;-80
2022/10/25 13:00:01;;;;;;;4.72;2.00;;;17.30;99.90;;;;;;5016231;28;20493;-77
2022/10/25 13:03:05;;;;;;;9.35;2.83;;;17.00;99.90;;;;;;5019912;28;20051;-78
2022/10/25 13:05:54;;;;;;;4.80;2.78;;;16.80;99.90;;;;;;5031100;28;20398;-81
2022/10/25 13:08:25;;;;;;;8.00;2.63;;;16.60;99.90;;;;;;5022540;28;20029;-81
2022/10/25 13:11:04;;;;;;;11.63;3.10;;;16.60;99.90;;;;;;5031412;28;20049;-80
2022/10/25 13:13:37;;;;;;;8.82;2.72;;;16.50;99.90;;;;;;5032906;28;20014;-81
2022/10/25 13:16:05;;;;;;;7.68;2.88;;;16.40;99.90;;;;;;5029474;28;20093;-79
2022/10/25 13:18:31;;;;;;;5.50;2.53;;;16.40;99.90;;;;;;5046201;28;20062;-80